createdAt,value
2018-10-05T00:01:04.323Z,64.59
2018-10-05T00:03:33.915Z,65.35
2018-10-05T00:06:03.851Z,64.49
2018-10-05T00:08:33.263Z,64.82
2018-10-05T00:11:02.765Z,64.83
2018-10-05T00:13:40.556Z,64.49
2018-10-05T00:16:10.281Z,65.01
2018-10-05T00:18:40.654Z,64.24
2018-10-05T00:21:10.145Z,64.63
2018-10-05T00:23:39.763Z,64.77
2018-10-05T00:26:09.521Z,64.77
2018-10-05T00:28:39.114Z,64.53
2018-10-05T00:31:08.787Z,64.73
2018-10-05T00:36:01.301Z,64.44
2018-10-05T00:38:30.820Z,64.10
2018-10-05T00:41:01.625Z,63.72
2018-10-05T00:43:32.077Z,64.46
2018-10-05T00:46:01.984Z,63.79
2018-10-05T00:48:31.728Z,64.18
2018-10-05T00:51:01.369Z,64.25
2018-10-05T00:53:32.703Z,64.21
2018-10-05T00:56:02.455Z,64.60
2018-10-05T00:58:32.935Z,64.05
2018-10-05T01:01:03.279Z,63.97
2018-10-05T01:03:33.357Z,63.82
2018-10-05T01:06:03.092Z,63.96
2018-10-05T01:08:32.552Z,64.16
2018-10-05T01:11:03.739Z,63.64
2018-10-05T01:13:35.216Z,63.70
2018-10-05T01:16:06.707Z,63.51
2018-10-05T01:18:39.651Z,63.52
2018-10-05T01:21:09.376Z,63.72
2018-10-05T01:23:39.241Z,63.31
2018-10-05T01:26:08.840Z,63.99
2018-10-05T01:28:38.165Z,64.06
2018-10-05T01:31:08.203Z,64.57
2018-10-05T01:33:39.531Z,64.61
2018-10-05T01:36:10.431Z,64.34
2018-10-05T01:38:40.334Z,63.75
2018-10-05T01:41:10.004Z,64.36
2018-10-05T01:43:40.620Z,63.60
2018-10-05T01:46:11.296Z,64.01
2018-10-05T01:48:40.846Z,64.13
2018-10-05T01:51:13.999Z,63.36
2018-10-05T01:56:06.958Z,63.43
2018-10-05T01:58:36.894Z,63.61
2018-10-05T02:01:06.615Z,63.87
2018-10-05T02:06:14.987Z,63.37
2018-10-05T02:08:44.514Z,63.82
2018-10-05T02:11:13.822Z,63.98
2018-10-05T02:13:43.868Z,64.09
2018-10-05T02:16:13.410Z,63.58
2018-10-05T02:18:42.847Z,63.67
2018-10-05T02:21:13.106Z,63.16
2018-10-05T02:23:42.745Z,63.10
2018-10-05T02:26:12.105Z,63.21
2018-10-05T02:28:41.746Z,64.27
2018-10-05T02:31:11.415Z,64.32
2018-10-05T02:33:40.935Z,64.91
2018-10-05T02:36:11.693Z,65.21
2018-10-05T02:38:41.305Z,65.60
2018-10-05T02:41:11.023Z,64.71
2018-10-05T02:43:41.262Z,64.50
2018-10-05T02:46:11.466Z,64.70
2018-10-05T02:48:41.208Z,64.37
2018-10-05T02:51:11.398Z,63.90
2018-10-05T02:53:40.890Z,64.03
2018-10-05T02:56:10.846Z,63.71
2018-10-05T02:58:40.659Z,64.21
2018-10-05T03:01:21.123Z,64.28
2018-10-05T03:03:55.410Z,64.87
2018-10-05T03:06:25.790Z,65.24
2018-10-05T03:08:55.371Z,65.33
2018-10-05T03:11:25.009Z,65.07
2018-10-05T03:13:55.321Z,64.84
2018-10-05T03:16:25.366Z,64.97
2018-10-05T03:18:55.259Z,64.44
2018-10-05T03:21:24.639Z,64.63
2018-10-05T03:23:54.856Z,64.98
2018-10-05T03:26:25.720Z,65.02
2018-10-05T03:28:55.633Z,65.72
2018-10-05T03:31:26.040Z,65.35
2018-10-05T03:33:55.528Z,65.63
2018-10-05T03:36:25.276Z,65.00
2018-10-05T03:38:55.585Z,65.44
2018-10-05T03:41:25.360Z,65.16
2018-10-05T03:43:54.705Z,65.27
2018-10-05T03:46:24.803Z,64.67
2018-10-05T03:49:02.997Z,64.81
2018-10-05T03:51:32.416Z,64.21
2018-10-05T03:54:05.151Z,64.04
2018-10-05T03:56:35.555Z,64.12
2018-10-05T03:59:05.198Z,63.78
2018-10-05T04:01:35.937Z,64.20
2018-10-05T04:04:05.599Z,64.63
2018-10-05T04:06:35.396Z,64.39
2018-10-05T04:09:06.550Z,64.82
2018-10-05T04:11:36.361Z,65.17
2018-10-05T04:14:06.785Z,64.46
2018-10-05T04:16:36.328Z,65.24
2018-10-05T04:19:07.000Z,64.82
2018-10-05T04:21:36.787Z,65.00
2018-10-05T04:24:06.188Z,64.95
2018-10-05T04:26:35.817Z,64.80
2018-10-05T04:29:06.605Z,65.16
2018-10-05T04:31:36.323Z,65.02
2018-10-05T04:34:05.735Z,64.38
2018-10-05T04:39:19.590Z,65.33
2018-10-05T04:41:49.181Z,65.52
2018-10-05T04:44:19.511Z,65.09
2018-10-05T04:46:49.043Z,66.07
2018-10-05T04:49:19.341Z,65.73
2018-10-05T04:51:51.319Z,65.69
2018-10-05T04:54:20.922Z,65.92
2018-10-05T04:56:50.389Z,65.55
2018-10-05T04:59:30.039Z,66.21
2018-10-05T05:02:00.092Z,65.71
2018-10-05T05:04:30.352Z,65.43
2018-10-05T05:07:01.864Z,64.82
2018-10-05T05:09:31.279Z,65.53
2018-10-05T05:12:01.260Z,65.45
2018-10-05T05:14:32.800Z,64.98
2018-10-05T05:17:04.893Z,65.50
2018-10-05T05:19:35.150Z,64.89
2018-10-05T05:22:05.464Z,64.69
2018-10-05T05:24:38.517Z,64.77
2018-10-05T05:27:08.534Z,64.03
2018-10-05T05:29:37.944Z,63.86
2018-10-05T05:32:10.056Z,64.31
2018-10-05T05:34:41.562Z,64.25
2018-10-05T05:37:11.404Z,64.21
2018-10-05T05:39:43.535Z,63.89
2018-10-05T05:42:14.464Z,63.76
2018-10-05T05:44:44.849Z,64.11
2018-10-05T05:47:18.084Z,64.02
2018-10-05T05:49:47.804Z,65.16
2018-10-05T05:52:18.418Z,65.01
2018-10-05T05:54:49.748Z,66.18
2018-10-05T05:57:22.385Z,65.30
2018-10-05T05:59:54.824Z,65.93
2018-10-05T06:02:24.990Z,65.73
2018-10-05T06:05:00.263Z,65.24
2018-10-05T06:07:29.806Z,64.86
2018-10-05T06:10:00.659Z,65.28
2018-10-05T06:12:31.003Z,65.14
2018-10-05T06:15:00.871Z,65.54
2018-10-05T06:17:30.431Z,66.12
2018-10-05T06:22:25.012Z,66.50
2018-10-05T06:24:55.479Z,66.10
2018-10-05T06:27:26.692Z,65.63
2018-10-05T06:29:58.264Z,65.34
2018-10-05T06:32:29.007Z,64.70
2018-10-05T06:34:58.671Z,64.95
2018-10-05T06:37:33.149Z,63.98
2018-10-05T06:40:02.722Z,64.38
2018-10-05T06:42:32.497Z,64.05
2018-10-05T06:45:05.077Z,63.98
2018-10-05T06:47:37.039Z,62.91
2018-10-05T06:50:23.940Z,62.77
2018-10-05T06:52:55.615Z,61.28
2018-10-05T06:55:26.635Z,61.00
2018-10-05T06:58:01.994Z,59.61
2018-10-05T07:00:34.892Z,59.12
2018-10-05T07:03:08.845Z,59.07
2018-10-05T07:05:41.372Z,59.30
2018-10-05T07:08:12.906Z,58.73
2018-10-05T07:10:44.198Z,57.64
2018-10-05T07:13:14.301Z,57.75
2018-10-05T07:15:51.407Z,56.09
2018-10-05T07:18:23.739Z,55.67
2018-10-05T07:20:54.812Z,55.46
2018-10-05T07:23:27.602Z,54.69
2018-10-05T07:25:58.684Z,53.52
2018-10-05T07:28:29.820Z,53.16
2018-10-05T07:31:03.364Z,53.38
2018-10-05T07:33:33.620Z,52.56
2018-10-05T07:36:05.632Z,51.75
2018-10-05T07:38:38.244Z,50.98
2018-10-05T07:41:08.004Z,51.91
2018-10-05T07:43:37.390Z,51.13
2018-10-05T07:46:08.669Z,51.35
2018-10-05T07:48:42.152Z,50.78
2018-10-05T07:51:11.650Z,49.38
2018-10-05T07:53:46.918Z,48.25
2018-10-05T07:56:18.901Z,48.92
2018-10-05T07:58:49.227Z,47.90
2018-10-05T08:01:18.930Z,48.32
2018-10-05T08:03:48.656Z,46.15
2018-10-05T08:06:18.348Z,46.82
2018-10-05T08:08:48.670Z,46.53
2018-10-05T08:11:20.133Z,46.55
2018-10-05T08:13:50.287Z,45.87
2018-10-05T08:16:22.046Z,46.32
2018-10-05T08:18:52.516Z,44.70
2018-10-05T08:21:40.308Z,45.20
2018-10-05T08:24:12.048Z,46.10
2018-10-05T08:26:41.905Z,45.39
2018-10-05T08:29:11.455Z,43.75
2018-10-05T08:31:41.271Z,43.17
2018-10-05T08:34:10.769Z,43.10
2018-10-05T08:36:40.433Z,42.20
2018-10-05T08:39:13.657Z,41.85
2018-10-05T08:41:43.492Z,42.61
2018-10-05T08:44:13.839Z,42.90
2018-10-05T08:46:43.531Z,41.91
2018-10-05T08:49:13.596Z,41.70
2018-10-05T08:51:43.412Z,40.49
2018-10-05T08:54:13.451Z,39.59
2018-10-05T08:56:43.184Z,40.45
2018-10-05T08:59:12.799Z,38.90
2018-10-05T09:01:45.576Z,39.90
2018-10-05T09:04:15.074Z,38.43
2018-10-05T09:06:45.077Z,38.66
2018-10-05T09:09:15.539Z,39.04
2018-10-05T09:11:49.260Z,37.85
2018-10-05T09:14:21.492Z,37.00
2018-10-05T09:16:51.273Z,36.75
2018-10-05T09:19:22.411Z,35.63
2018-10-05T09:21:54.169Z,35.63
2018-10-05T09:24:39.102Z,35.08
2018-10-05T09:27:08.718Z,34.79
2018-10-05T09:29:44.214Z,34.62
2018-10-05T09:32:14.265Z,34.28
2018-10-05T09:34:45.520Z,33.53
2018-10-05T09:37:16.168Z,32.87
2018-10-05T09:39:46.375Z,32.83
2018-10-05T09:42:17.107Z,32.19
2018-10-05T09:44:49.279Z,32.65
2018-10-05T09:47:18.773Z,31.68
2018-10-05T09:49:49.198Z,30.98
2018-10-05T09:52:21.743Z,30.18
2018-10-05T09:55:05.507Z,29.52
2018-10-05T09:57:35.827Z,30.72
2018-10-05T10:00:16.641Z,30.10
2018-10-05T10:02:51.124Z,29.28
2018-10-05T10:05:22.524Z,29.61
2018-10-05T10:07:52.131Z,29.28
2018-10-05T10:10:22.496Z,30.31
2018-10-05T10:12:52.825Z,29.79
2018-10-05T10:15:27.328Z,28.43
2018-10-05T10:17:56.609Z,29.78
2018-10-05T10:20:26.505Z,29.02
2018-10-05T10:22:56.624Z,28.28
2018-10-05T10:25:27.465Z,29.66
2018-10-05T10:28:00.719Z,29.22
2018-10-05T10:30:35.306Z,28.11
2018-10-05T10:33:14.155Z,28.91
2018-10-05T10:35:45.020Z,26.72
2018-10-05T10:38:18.369Z,26.62
2018-10-05T10:40:48.443Z,27.98
2018-10-05T10:43:24.442Z,27.69
2018-10-05T10:45:54.020Z,26.99
2018-10-05T10:48:24.746Z,26.86
2018-10-05T10:50:54.128Z,26.25
2018-10-05T10:53:23.565Z,25.76
2018-10-05T10:55:55.593Z,26.61
2018-10-05T10:58:26.544Z,25.88
2018-10-05T11:00:57.174Z,26.50
2018-10-05T11:03:28.587Z,26.91
2018-10-05T11:06:02.944Z,25.95
2018-10-05T11:08:34.601Z,25.50
2018-10-05T11:11:06.998Z,26.86
2018-10-05T11:13:37.574Z,27.16
2018-10-05T11:16:08.082Z,28.10
2018-10-05T11:18:38.078Z,27.07
2018-10-05T11:21:10.682Z,25.43
2018-10-05T11:23:45.801Z,25.16
2018-10-05T11:26:19.448Z,25.14
2018-10-05T11:28:48.932Z,26.79
2018-10-05T11:31:18.372Z,26.32
2018-10-05T11:33:48.463Z,27.14
2018-10-05T11:36:17.893Z,26.41
2018-10-05T11:38:54.094Z,27.23
2018-10-05T11:41:24.420Z,26.10
2018-10-05T11:43:56.710Z,26.32
2018-10-05T11:46:26.612Z,26.02
2018-10-05T11:49:00.355Z,25.92
2018-10-05T11:51:29.838Z,26.61
2018-10-05T11:54:00.994Z,27.23
2018-10-05T11:56:31.055Z,26.32
2018-10-05T11:59:00.911Z,26.88
2018-10-05T12:01:31.645Z,25.69
2018-10-05T12:04:06.234Z,25.66
2018-10-05T12:06:37.180Z,26.11
2018-10-05T12:09:11.837Z,25.63
2018-10-05T12:11:42.103Z,25.51
2018-10-05T12:14:13.659Z,25.56
2018-10-05T12:19:21.394Z,25.84
2018-10-05T12:21:50.894Z,26.00
2018-10-05T12:24:27.089Z,25.92
2018-10-05T12:26:57.878Z,24.78
2018-10-05T12:29:27.221Z,25.75
2018-10-05T12:31:56.907Z,25.40
2018-10-05T12:34:27.480Z,25.16
2018-10-05T12:39:39.625Z,25.26
2018-10-05T12:42:09.118Z,26.53
2018-10-05T12:44:39.540Z,26.08
2018-10-05T12:47:15.066Z,26.89
2018-10-05T12:49:47.716Z,25.84
2018-10-05T12:52:20.323Z,26.51
2018-10-05T12:54:53.837Z,25.91
2018-10-05T12:57:25.788Z,27.15
2018-10-05T12:59:56.015Z,27.62
2018-10-05T13:02:27.565Z,27.10
2018-10-05T13:04:58.377Z,27.00
2018-10-05T13:07:27.894Z,27.65
2018-10-05T13:10:01.600Z,26.57
2018-10-05T13:12:36.918Z,26.72
2018-10-05T13:15:09.999Z,26.00
2018-10-05T13:20:25.516Z,26.53
2018-10-05T13:22:56.577Z,26.88
2018-10-05T13:25:30.709Z,26.79
2018-10-05T13:28:01.553Z,26.84
2018-10-05T13:30:33.284Z,26.02
2018-10-05T13:33:07.588Z,27.30
2018-10-05T13:35:44.366Z,28.30
2018-10-05T13:38:21.157Z,27.36
2018-10-05T13:40:51.859Z,29.16
2018-10-05T13:43:21.277Z,28.69
2018-10-05T13:45:56.564Z,29.36
2018-10-05T13:48:29.733Z,29.81
2018-10-05T13:51:04.469Z,30.25
2018-10-05T13:53:36.519Z,30.62
2018-10-05T13:56:16.173Z,30.66
2018-10-05T13:58:48.647Z,30.64
2018-10-05T14:01:20.667Z,30.56
2018-10-05T14:03:51.280Z,29.87
2018-10-05T14:06:21.212Z,31.14
2018-10-05T14:11:52.198Z,30.44
2018-10-05T14:14:21.997Z,29.26
2018-10-05T14:16:54.830Z,28.80
2018-10-05T14:19:27.688Z,28.71
2018-10-05T14:22:00.245Z,29.23
2018-10-05T14:24:35.543Z,29.14
2018-10-05T14:27:06.399Z,28.73
2018-10-05T14:29:36.462Z,28.71
2018-10-05T14:32:11.363Z,28.12
2018-10-05T14:34:43.181Z,28.64
2018-10-05T14:37:13.429Z,29.59
2018-10-05T14:39:47.503Z,29.60
2018-10-05T14:42:21.406Z,29.32
2018-10-05T14:44:53.386Z,29.23
2018-10-05T14:47:25.645Z,29.37
2018-10-05T14:49:59.241Z,29.88
2018-10-05T14:52:32.484Z,30.26
2018-10-05T14:55:02.904Z,29.99
2018-10-05T14:57:38.354Z,30.83
2018-10-05T15:00:16.013Z,30.18
2018-10-05T15:02:48.929Z,30.75
2018-10-05T15:05:27.257Z,30.50
2018-10-05T15:08:01.026Z,31.55
2018-10-05T15:10:32.670Z,31.06
2018-10-05T15:13:09.851Z,31.43
2018-10-05T15:15:49.007Z,31.69
2018-10-05T15:18:22.299Z,30.66
2018-10-05T15:20:52.982Z,31.53
2018-10-05T15:23:25.687Z,31.11
2018-10-05T15:25:59.495Z,30.75
2018-10-05T15:28:29.563Z,31.36
2018-10-05T15:31:03.936Z,31.61
2018-10-05T15:33:35.223Z,31.76
2018-10-05T15:36:07.157Z,31.79
2018-10-05T15:38:39.391Z,31.64
2018-10-05T15:41:12.169Z,31.77
2018-10-05T15:43:43.849Z,32.19
2018-10-05T15:46:22.811Z,31.87
2018-10-05T15:51:57.413Z,32.41
2018-10-05T15:54:30.379Z,32.99
2018-10-05T15:57:00.685Z,32.75
2018-10-05T15:59:32.277Z,32.48
2018-10-05T16:02:03.126Z,32.41
2018-10-05T16:04:32.619Z,32.41
2018-10-05T16:07:12.740Z,33.44
2018-10-05T16:09:43.472Z,32.42
2018-10-05T16:12:16.749Z,33.70
2018-10-05T16:14:48.310Z,32.99
2018-10-05T16:17:18.876Z,33.18
2018-10-05T16:20:04.093Z,33.33
2018-10-05T16:22:35.672Z,34.27
2018-10-05T16:25:06.831Z,33.86
2018-10-05T16:27:36.317Z,34.82
2018-10-05T16:32:47.475Z,34.50
2018-10-05T16:35:17.231Z,34.32
2018-10-05T16:37:47.331Z,35.04
2018-10-05T16:40:17.444Z,35.76
2018-10-05T16:42:48.403Z,36.03
2018-10-05T16:45:18.260Z,35.92
2018-10-05T16:47:49.815Z,35.58
2018-10-05T16:50:21.396Z,36.71
2018-10-05T16:52:53.346Z,36.47
2018-10-05T16:55:23.580Z,36.19
2018-10-05T16:57:53.413Z,35.88
2018-10-05T17:00:25.263Z,37.34
2018-10-05T17:02:56.293Z,37.39
2018-10-05T17:05:30.330Z,36.59
2018-10-05T17:08:11.920Z,37.01
2018-10-05T17:10:43.237Z,37.19
2018-10-05T17:13:21.898Z,37.67
2018-10-05T17:15:54.516Z,38.36
2018-10-05T17:18:29.484Z,38.28
2018-10-05T17:20:59.814Z,37.54
2018-10-05T17:23:32.307Z,37.92
2018-10-05T17:26:02.376Z,37.97
2018-10-05T17:28:32.313Z,38.53
2018-10-05T17:31:02.829Z,38.75
2018-10-05T17:33:33.079Z,38.68
2018-10-05T17:36:03.835Z,39.57
2018-10-05T17:38:36.234Z,39.30
2018-10-05T17:41:07.653Z,39.65
2018-10-05T17:43:45.902Z,39.69
2018-10-05T17:46:19.118Z,40.08
2018-10-05T17:48:52.492Z,39.23
2018-10-05T17:51:28.075Z,40.37
2018-10-05T17:53:58.443Z,40.79
2018-10-05T17:56:29.561Z,41.51
2018-10-05T17:58:59.021Z,41.67
2018-10-05T18:01:33.488Z,41.72
2018-10-05T18:04:04.940Z,41.92
2018-10-05T18:06:35.298Z,43.32
2018-10-05T18:09:12.617Z,42.76
2018-10-05T18:11:44.853Z,42.93
2018-10-05T18:14:15.660Z,43.63
2018-10-05T18:16:46.226Z,44.51
2018-10-05T18:19:16.561Z,44.94
2018-10-05T18:21:46.727Z,45.29
2018-10-05T18:24:16.393Z,45.53
2018-10-05T18:26:46.322Z,45.33
2018-10-05T18:29:16.695Z,46.42
2018-10-05T18:31:46.405Z,45.72
2018-10-05T18:34:34.233Z,46.10
2018-10-05T18:37:03.851Z,46.13
2018-10-05T18:39:34.148Z,46.59
2018-10-05T18:42:07.464Z,46.72
2018-10-05T18:44:39.375Z,46.42
2018-10-05T18:47:10.760Z,46.15
2018-10-05T18:49:43.045Z,46.86
2018-10-05T18:52:18.593Z,46.35
2018-10-05T18:54:51.407Z,46.74
2018-10-05T18:57:24.195Z,46.39
2018-10-05T18:59:56.064Z,46.68
2018-10-05T19:02:31.353Z,47.20
2018-10-05T19:05:07.736Z,46.46
2018-10-05T19:07:43.460Z,46.25
2018-10-05T19:13:09.847Z,47.17
2018-10-05T19:18:43.543Z,47.17
2018-10-05T19:21:26.850Z,47.56
2018-10-05T19:24:00.288Z,47.09
2018-10-05T19:26:33.220Z,46.95
2018-10-05T19:29:05.089Z,47.05
2018-10-05T19:31:38.703Z,47.02
2018-10-05T19:34:12.540Z,46.96
2018-10-05T19:36:43.961Z,47.45
2018-10-05T19:39:16.535Z,47.15
2018-10-05T19:41:47.673Z,47.18
2018-10-05T19:44:17.326Z,47.40
2018-10-05T19:46:57.154Z,48.13
2018-10-05T19:49:30.674Z,48.52
2018-10-05T19:52:11.621Z,47.79
2018-10-05T19:54:46.236Z,48.85
2018-10-05T19:57:25.319Z,48.09
2018-10-05T19:59:57.465Z,49.13
2018-10-05T20:02:29.421Z,48.74
2018-10-05T20:05:08.248Z,48.91
2018-10-05T20:07:45.239Z,48.13
2018-10-05T20:10:17.752Z,49.46
2018-10-05T20:12:50.254Z,48.98
2018-10-05T20:15:22.648Z,49.25
2018-10-05T20:17:59.440Z,49.71
2018-10-05T20:20:33.231Z,49.28
2018-10-05T20:23:11.454Z,49.70
2018-10-05T20:25:43.656Z,49.71
2018-10-05T20:28:19.016Z,50.04
2018-10-05T20:31:04.096Z,49.62
2018-10-05T20:33:35.691Z,49.62
2018-10-05T20:36:13.384Z,49.85
2018-10-05T20:38:50.473Z,49.05
2018-10-05T20:41:35.981Z,50.05
2018-10-05T20:44:14.291Z,50.75
2018-10-05T20:46:45.062Z,50.46
2018-10-05T20:49:16.492Z,50.49
2018-10-05T20:51:48.031Z,50.52
2018-10-05T20:54:18.642Z,50.79
2018-10-05T20:59:52.196Z,50.63
2018-10-05T21:02:23.266Z,50.55
2018-10-05T21:04:55.433Z,51.04
2018-10-05T21:07:32.850Z,50.97
2018-10-05T21:10:10.731Z,51.45
2018-10-05T21:12:42.758Z,51.76
2018-10-05T21:15:16.760Z,51.43
2018-10-05T21:17:51.868Z,51.65
2018-10-05T21:20:26.088Z,51.15
2018-10-05T21:22:56.565Z,51.75
2018-10-05T21:25:30.786Z,52.25
2018-10-05T21:28:05.878Z,51.88
2018-10-05T21:30:43.549Z,52.06
2018-10-05T21:33:15.905Z,52.53
2018-10-05T21:35:53.183Z,52.43
2018-10-05T21:38:26.198Z,53.31
2018-10-05T21:40:56.848Z,52.73
2018-10-05T21:43:36.602Z,51.90
2018-10-05T21:46:07.221Z,52.29
2018-10-05T21:48:38.176Z,52.42
2018-10-05T21:51:12.476Z,53.16
2018-10-05T21:53:43.570Z,53.04
2018-10-05T21:56:15.977Z,53.55
2018-10-05T21:58:46.142Z,54.26
2018-10-05T22:01:23.010Z,53.84
2018-10-05T22:04:02.739Z,52.99
2018-10-05T22:06:34.456Z,54.00
2018-10-05T22:09:06.660Z,53.35
2018-10-05T22:11:40.144Z,54.01
2018-10-05T22:17:02.808Z,53.15
2018-10-05T22:19:36.772Z,53.85
2018-10-05T22:22:06.580Z,54.24
2018-10-05T22:24:52.927Z,55.60
2018-10-05T22:27:23.750Z,55.14
2018-10-05T22:29:54.212Z,55.64
2018-10-05T22:32:24.431Z,55.72
2018-10-05T22:34:54.537Z,55.74
2018-10-05T22:37:25.438Z,55.53
2018-10-05T22:39:58.598Z,55.18
2018-10-05T22:42:30.760Z,55.96
2018-10-05T22:45:00.833Z,55.69
2018-10-05T22:47:31.498Z,55.38
2018-10-05T22:50:03.279Z,55.35
2018-10-05T22:52:33.729Z,55.76
2018-10-05T22:55:03.195Z,56.41
2018-10-05T22:57:32.801Z,55.75
2018-10-05T23:00:05.465Z,55.55
2018-10-05T23:02:35.600Z,55.90
2018-10-05T23:05:05.572Z,56.27
2018-10-05T23:07:35.499Z,56.64
2018-10-05T23:10:05.701Z,57.53
2018-10-05T23:12:35.102Z,57.06
2018-10-05T23:15:08.588Z,57.22
2018-10-05T23:17:38.566Z,56.80
2018-10-05T23:20:08.642Z,57.27
2018-10-05T23:22:38.397Z,57.76
2018-10-05T23:25:08.058Z,56.81
2018-10-05T23:27:41.780Z,57.20
2018-10-05T23:30:14.346Z,57.68
2018-10-05T23:32:43.853Z,58.03
2018-10-05T23:35:13.822Z,58.26
2018-10-05T23:37:43.789Z,58.89
2018-10-05T23:40:15.534Z,58.33
2018-10-05T23:42:44.972Z,57.82
2018-10-05T23:45:18.838Z,57.73
2018-10-05T23:47:48.901Z,57.11
2018-10-05T23:50:19.708Z,57.22
2018-10-05T23:52:52.852Z,57.06
2018-10-05T23:55:26.848Z,57.39
2018-10-05T23:57:57.185Z,57.95
